Terminal Aerodrome Forecast
Issued by NWS Omaha/Valley, NE

Home | Current Version | Previous Version | Text Only | Print | Product List | Glossary Off
Versions: 1 2 3 4 5 6 7 8 9 10 11 12 13

000
FTUS43 KOAX 251721
TAFOFK
TAF
KOFK 251721Z 2518/2618 33009KT P6SM SKC
     FM260200 VRB05KT P6SM SCT250
     FM260900 25005KT P6SM BKN120
     FM261200 28005KT P6SM SCT040 BKN100
     FM261400 33005KT P6SM BKN100
     FM261600 03007KT P6SM BKN150=

USA.gov is the U.S. government's official web portal to all federal, state and local government web resources and services.